sensor_id;sensor_type;location;lat;lon;timestamp;temperature;humidity
23010;DHT22;11671;49.990;8.028;2022-11-14T00:00:37;4.70;99.90
23010;DHT22;11671;49.990;8.028;2022-11-14T00:03:05;4.70;99.90
23010;DHT22;11671;49.990;8.028;2022-11-14T00:05:30;4.70;99.90
23010;DHT22;11671;49.990;8.028;2022-11-14T00:07:56;4.70;99.90
23010;DHT22;11671;49.990;8.028;2022-11-14T00:10:22;4.70;99.90
23010;DHT22;11671;49.990;8.028;2022-11-14T00:12:47;4.70;99.90
23010;DHT22;11671;49.990;8.028;2022-11-14T00:15:13;4.70;99.90
23010;DHT22;11671;49.990;8.028;2022-11-14T00:17:39;4.70;99.90
23010;DHT22;11671;49.990;8.028;2022-11-14T00:20:06;4.70;99.90
23010;DHT22;11671;49.990;8.028;2022-11-14T00:22:32;4.70;99.90
23010;DHT22;11671;49.990;8.028;2022-11-14T00:24:57;4.70;99.90
23010;DHT22;11671;49.990;8.028;2022-11-14T00:27:23;4.70;99.90
23010;DHT22;11671;49.990;8.028;2022-11-14T00:29:49;4.70;99.90
23010;DHT22;11671;49.990;8.028;2022-11-14T00:32:15;4.60;99.90
23010;DHT22;11671;49.990;8.028;2022-11-14T00:34:40;4.70;99.90
23010;DHT22;11671;49.990;8.028;2022-11-14T00:37:06;4.70;99.90
23010;DHT22;11671;49.990;8.028;2022-11-14T00:39:31;4.70;99.90
23010;DHT22;11671;49.990;8.028;2022-11-14T00:41:57;4.70;99.90
23010;DHT22;11671;49.990;8.028;2022-11-14T00:44:23;4.70;99.90
23010;DHT22;11671;49.990;8.028;2022-11-14T00:46:48;4.70;99.90
23010;DHT22;11671;49.990;8.028;2022-11-14T00:49:14;4.70;99.90
23010;DHT22;11671;49.990;8.028;2022-11-14T00:51:39;4.70;99.90
23010;DHT22;11671;49.990;8.028;2022-11-14T00:54:05;4.70;99.90
23010;DHT22;11671;49.990;8.028;2022-11-14T00:56:30;4.70;99.90
23010;DHT22;11671;49.990;8.028;2022-11-14T00:58:56;4.70;99.90
23010;DHT22;11671;49.990;8.028;2022-11-14T01:01:22;4.60;99.90
23010;DHT22;11671;49.990;8.028;2022-11-14T01:03:48;4.60;99.90
23010;DHT22;11671;49.990;8.028;2022-11-14T01:06:13;4.60;99.90
23010;DHT22;11671;49.990;8.028;2022-11-14T01:08:40;4.60;99.90
23010;DHT22;11671;49.990;8.028;2022-11-14T01:11:17;4.60;99.90
23010;DHT22;11671;49.990;8.028;2022-11-14T01:13:44;4.70;99.90
23010;DHT22;11671;49.990;8.028;2022-11-14T01:16:10;4.70;99.90
23010;DHT22;11671;49.990;8.028;2022-11-14T01:18:37;4.70;99.90
23010;DHT22;11671;49.990;8.028;2022-11-14T01:21:08;4.70;99.90
23010;DHT22;11671;49.990;8.028;2022-11-14T01:23:34;4.70;99.90
23010;DHT22;11671;49.990;8.028;2022-11-14T01:26:11;4.60;99.90
23010;DHT22;11671;49.990;8.028;2022-11-14T01:28:37;4.50;99.90
23010;DHT22;11671;49.990;8.028;2022-11-14T01:31:16;4.40;99.90
23010;DHT22;11671;49.990;8.028;2022-11-14T01:33:42;4.40;99.90
23010;DHT22;11671;49.990;8.028;2022-11-14T01:36:08;4.30;99.90
23010;DHT22;11671;49.990;8.028;2022-11-14T01:38:35;4.30;99.90
23010;DHT22;11671;49.990;8.028;2022-11-14T01:41:01;4.30;99.90
23010;DHT22;11671;49.990;8.028;2022-11-14T01:43:29;4.20;99.90
23010;DHT22;11671;49.990;8.028;2022-11-14T01:46:01;4.20;99.90
23010;DHT22;11671;49.990;8.028;2022-11-14T01:48:39;4.10;99.90
23010;DHT22;11671;49.990;8.028;2022-11-14T01:51:22;4.10;99.90
23010;DHT22;11671;49.990;8.028;2022-11-14T01:53:52;4.10;99.90
23010;DHT22;11671;49.990;8.028;2022-11-14T01:56:22;4.20;99.90
23010;DHT22;11671;49.990;8.028;2022-11-14T01:58:57;4.30;99.90
23010;DHT22;11671;49.990;8.028;2022-11-14T02:01:24;4.40;99.90
23010;DHT22;11671;49.990;8.028;2022-11-14T02:03:52;4.50;99.90
23010;DHT22;11671;49.990;8.028;2022-11-14T02:06:19;4.70;99.90
23010;DHT22;11671;49.990;8.028;2022-11-14T02:08:45;4.80;99.90
23010;DHT22;11671;49.990;8.028;2022-11-14T02:11:12;4.90;99.90
23010;DHT22;11671;49.990;8.028;2022-11-14T02:13:37;5.00;99.90
23010;DHT22;11671;49.990;8.028;2022-11-14T02:16:04;5.20;99.90
23010;DHT22;11671;49.990;8.028;2022-11-14T02:18:29;5.30;99.90
23010;DHT22;11671;49.990;8.028;2022-11-14T02:20:55;5.50;99.90
23010;DHT22;11671;49.990;8.028;2022-11-14T02:23:24;5.50;99.90
23010;DHT22;11671;49.990;8.028;2022-11-14T02:25:51;5.60;99.90
23010;DHT22;11671;49.990;8.028;2022-11-14T02:28:16;5.70;99.90
23010;DHT22;11671;49.990;8.028;2022-11-14T02:30:45;5.80;99.90
23010;DHT22;11671;49.990;8.028;2022-11-14T02:33:10;5.90;99.90
23010;DHT22;11671;49.990;8.028;2022-11-14T02:35:36;5.80;99.90
23010;DHT22;11671;49.990;8.028;2022-11-14T02:38:01;5.80;99.90
23010;DHT22;11671;49.990;8.028;2022-11-14T02:40:27;5.80;99.90
23010;DHT22;11671;49.990;8.028;2022-11-14T02:42:52;5.80;99.90
23010;DHT22;11671;49.990;8.028;2022-11-14T02:45:18;5.80;99.90
23010;DHT22;11671;49.990;8.028;2022-11-14T02:47:45;5.70;99.90
23010;DHT22;11671;49.990;8.028;2022-11-14T02:50:11;5.80;99.90
23010;DHT22;11671;49.990;8.028;2022-11-14T02:52:36;5.80;99.90
23010;DHT22;11671;49.990;8.028;2022-11-14T02:55:03;5.80;99.90
23010;DHT22;11671;49.990;8.028;2022-11-14T02:57:28;5.80;99.90
23010;DHT22;11671;49.990;8.028;2022-11-14T02:59:54;5.90;99.90
23010;DHT22;11671;49.990;8.028;2022-11-14T03:02:19;6.00;99.90
23010;DHT22;11671;49.990;8.028;2022-11-14T03:04:45;6.10;99.90
23010;DHT22;11671;49.990;8.028;2022-11-14T03:07:10;6.20;99.90
23010;DHT22;11671;49.990;8.028;2022-11-14T03:09:36;6.30;99.90
23010;DHT22;11671;49.990;8.028;2022-11-14T03:12:02;6.30;99.90
23010;DHT22;11671;49.990;8.028;2022-11-14T03:14:29;6.30;99.90
23010;DHT22;11671;49.990;8.028;2022-11-14T03:16:54;6.30;99.90
23010;DHT22;11671;49.990;8.028;2022-11-14T03:19:20;6.30;99.90
23010;DHT22;11671;49.990;8.028;2022-11-14T03:21:45;6.30;99.90
23010;DHT22;11671;49.990;8.028;2022-11-14T03:24:11;6.20;99.90
23010;DHT22;11671;49.990;8.028;2022-11-14T03:26:37;6.20;99.90
23010;DHT22;11671;49.990;8.028;2022-11-14T03:29:03;6.10;99.90
23010;DHT22;11671;49.990;8.028;2022-11-14T03:31:28;6.10;99.90
23010;DHT22;11671;49.990;8.028;2022-11-14T03:33:54;6.10;99.90
23010;DHT22;11671;49.990;8.028;2022-11-14T03:36:19;6.20;99.90
23010;DHT22;11671;49.990;8.028;2022-11-14T03:38:45;6.20;99.90
23010;DHT22;11671;49.990;8.028;2022-11-14T03:41:11;6.20;99.90
23010;DHT22;11671;49.990;8.028;2022-11-14T03:43:36;6.20;99.90
23010;DHT22;11671;49.990;8.028;2022-11-14T03:46:02;6.20;99.90
23010;DHT22;11671;49.990;8.028;2022-11-14T03:48:29;6.20;99.90
23010;DHT22;11671;49.990;8.028;2022-11-14T03:50:55;6.20;99.90
23010;DHT22;11671;49.990;8.028;2022-11-14T03:53:21;6.10;99.90
23010;DHT22;11671;49.990;8.028;2022-11-14T03:55:47;6.20;99.90
23010;DHT22;11671;49.990;8.028;2022-11-14T03:58:12;6.20;99.90
23010;DHT22;11671;49.990;8.028;2022-11-14T04:00:38;6.20;99.90
23010;DHT22;11671;49.990;8.028;2022-11-14T04:03:04;6.20;99.90
23010;DHT22;11671;49.990;8.028;2022-11-14T04:05:29;6.30;99.90
23010;DHT22;11671;49.990;8.028;2022-11-14T04:07:55;6.30;99.90
23010;DHT22;11671;49.990;8.028;2022-11-14T04:10:20;6.30;99.90
23010;DHT22;11671;49.990;8.028;2022-11-14T04:12:49;6.30;99.90
23010;DHT22;11671;49.990;8.028;2022-11-14T04:15:16;6.30;99.90
23010;DHT22;11671;49.990;8.028;2022-11-14T04:17:43;6.40;99.90
23010;DHT22;11671;49.990;8.028;2022-11-14T04:20:09;6.40;99.90
23010;DHT22;11671;49.990;8.028;2022-11-14T04:22:35;6.40;99.90
23010;DHT22;11671;49.990;8.028;2022-11-14T04:25:01;6.40;99.90
23010;DHT22;11671;49.990;8.028;2022-11-14T04:27:26;6.40;99.90
23010;DHT22;11671;49.990;8.028;2022-11-14T04:29:52;6.30;99.90
23010;DHT22;11671;49.990;8.028;2022-11-14T04:32:17;6.30;99.90
23010;DHT22;11671;49.990;8.028;2022-11-14T04:34:43;6.30;99.90
23010;DHT22;11671;49.990;8.028;2022-11-14T04:37:12;6.30;99.90
23010;DHT22;11671;49.990;8.028;2022-11-14T04:39:37;6.30;99.90
23010;DHT22;11671;49.990;8.028;2022-11-14T04:42:03;6.30;99.90
23010;DHT22;11671;49.990;8.028;2022-11-14T04:44:28;6.30;99.90
23010;DHT22;11671;49.990;8.028;2022-11-14T04:46:54;6.40;99.90
23010;DHT22;11671;49.990;8.028;2022-11-14T04:49:20;6.40;99.90
23010;DHT22;11671;49.990;8.028;2022-11-14T04:51:45;6.40;99.90
23010;DHT22;11671;49.990;8.028;2022-11-14T04:54:11;6.40;99.90
23010;DHT22;11671;49.990;8.028;2022-11-14T04:56:36;6.40;99.90
23010;DHT22;11671;49.990;8.028;2022-11-14T04:59:02;6.50;99.90
23010;DHT22;11671;49.990;8.028;2022-11-14T05:01:27;6.40;99.90
23010;DHT22;11671;49.990;8.028;2022-11-14T05:03:53;6.40;99.90
23010;DHT22;11671;49.990;8.028;2022-11-14T05:06:19;6.40;99.90
23010;DHT22;11671;49.990;8.028;2022-11-14T05:08:45;6.40;99.90
23010;DHT22;11671;49.990;8.028;2022-11-14T05:11:15;6.40;99.90
23010;DHT22;11671;49.990;8.028;2022-11-14T05:13:41;6.40;99.90
23010;DHT22;11671;49.990;8.028;2022-11-14T05:16:07;6.40;99.90
23010;DHT22;11671;49.990;8.028;2022-11-14T05:18:32;6.40;99.90
23010;DHT22;11671;49.990;8.028;2022-11-14T05:20:59;6.40;99.90
23010;DHT22;11671;49.990;8.028;2022-11-14T05:23:26;6.40;99.90
23010;DHT22;11671;49.990;8.028;2022-11-14T05:26:03;6.40;99.90
23010;DHT22;11671;49.990;8.028;2022-11-14T05:28:29;6.40;99.90
23010;DHT22;11671;49.990;8.028;2022-11-14T05:31:05;6.40;99.90
23010;DHT22;11671;49.990;8.028;2022-11-14T05:33:31;6.50;99.90
23010;DHT22;11671;49.990;8.028;2022-11-14T05:36:08;6.60;99.90
23010;DHT22;11671;49.990;8.028;2022-11-14T05:38:34;6.60;99.90
23010;DHT22;11671;49.990;8.028;2022-11-14T05:41:04;6.50;99.90
23010;DHT22;11671;49.990;8.028;2022-11-14T05:43:29;6.60;99.90
23010;DHT22;11671;49.990;8.028;2022-11-14T05:46:01;6.50;99.90
23010;DHT22;11671;49.990;8.028;2022-11-14T05:48:28;6.50;99.90
23010;DHT22;11671;49.990;8.028;2022-11-14T05:50:59;6.60;99.90
23010;DHT22;11671;49.990;8.028;2022-11-14T05:53:25;6.60;99.90
23010;DHT22;11671;49.990;8.028;2022-11-14T05:55:51;6.70;99.90
23010;DHT22;11671;49.990;8.028;2022-11-14T05:58:17;6.70;99.90
23010;DHT22;11671;49.990;8.028;2022-11-14T06:00:43;6.80;99.90
23010;DHT22;11671;49.990;8.028;2022-11-14T06:03:09;6.80;99.90
23010;DHT22;11671;49.990;8.028;2022-11-14T06:05:34;6.80;99.90
23010;DHT22;11671;49.990;8.028;2022-11-14T06:08:00;6.80;99.90
23010;DHT22;11671;49.990;8.028;2022-11-14T06:10:27;6.80;99.90
23010;DHT22;11671;49.990;8.028;2022-11-14T06:12:52;6.80;99.90
23010;DHT22;11671;49.990;8.028;2022-11-14T06:15:18;6.90;99.90
23010;DHT22;11671;49.990;8.028;2022-11-14T06:17:44;6.80;99.90
23010;DHT22;11671;49.990;8.028;2022-11-14T06:20:10;6.90;99.90
23010;DHT22;11671;49.990;8.028;2022-11-14T06:22:38;6.80;99.90
23010;DHT22;11671;49.990;8.028;2022-11-14T06:25:04;6.70;99.90
23010;DHT22;11671;49.990;8.028;2022-11-14T06:27:30;6.80;99.90
23010;DHT22;11671;49.990;8.028;2022-11-14T06:29:56;6.80;99.90
23010;DHT22;11671;49.990;8.028;2022-11-14T06:32:21;6.70;99.90
23010;DHT22;11671;49.990;8.028;2022-11-14T06:34:47;6.70;99.90
23010;DHT22;11671;49.990;8.028;2022-11-14T06:37:12;6.70;99.90
23010;DHT22;11671;49.990;8.028;2022-11-14T06:39:38;6.70;99.90
23010;DHT22;11671;49.990;8.028;2022-11-14T06:42:03;6.70;99.90
23010;DHT22;11671;49.990;8.028;2022-11-14T06:44:29;6.70;99.90
23010;DHT22;11671;49.990;8.028;2022-11-14T06:46:54;6.70;99.90
23010;DHT22;11671;49.990;8.028;2022-11-14T06:49:20;6.70;99.90
23010;DHT22;11671;49.990;8.028;2022-11-14T06:51:46;6.80;99.90
23010;DHT22;11671;49.990;8.028;2022-11-14T06:54:12;6.80;99.90
23010;DHT22;11671;49.990;8.028;2022-11-14T06:56:38;6.80;99.90
23010;DHT22;11671;49.990;8.028;2022-11-14T06:59:03;6.90;99.90
23010;DHT22;11671;49.990;8.028;2022-11-14T07:01:29;6.90;99.90
23010;DHT22;11671;49.990;8.028;2022-11-14T07:03:54;6.80;99.90
23010;DHT22;11671;49.990;8.028;2022-11-14T07:06:24;6.90;99.90
23010;DHT22;11671;49.990;8.028;2022-11-14T07:08:52;6.90;99.90
23010;DHT22;11671;49.990;8.028;2022-11-14T07:11:20;7.00;99.90
23010;DHT22;11671;49.990;8.028;2022-11-14T07:13:51;7.10;99.90
23010;DHT22;11671;49.990;8.028;2022-11-14T07:16:17;7.10;99.90
23010;DHT22;11671;49.990;8.028;2022-11-14T07:18:43;7.10;99.90
23010;DHT22;11671;49.990;8.028;2022-11-14T07:21:09;7.10;99.90
23010;DHT22;11671;49.990;8.028;2022-11-14T07:23:38;7.10;99.90
23010;DHT22;11671;49.990;8.028;2022-11-14T07:26:06;7.10;99.90
23010;DHT22;11671;49.990;8.028;2022-11-14T07:28:33;7.10;99.90
23010;DHT22;11671;49.990;8.028;2022-11-14T07:31:12;7.10;99.90
23010;DHT22;11671;49.990;8.028;2022-11-14T07:33:38;7.10;99.90
23010;DHT22;11671;49.990;8.028;2022-11-14T07:36:04;7.00;99.90
23010;DHT22;11671;49.990;8.028;2022-11-14T07:38:31;7.00;99.90
23010;DHT22;11671;49.990;8.028;2022-11-14T07:40:59;7.00;99.90
23010;DHT22;11671;49.990;8.028;2022-11-14T07:43:25;7.00;99.90
23010;DHT22;11671;49.990;8.028;2022-11-14T07:45:51;7.00;99.90
23010;DHT22;11671;49.990;8.028;2022-11-14T07:48:17;7.10;99.90
23010;DHT22;11671;49.990;8.028;2022-11-14T07:50:42;7.10;99.90
23010;DHT22;11671;49.990;8.028;2022-11-14T07:53:08;7.10;99.90
23010;DHT22;11671;49.990;8.028;2022-11-14T07:55:37;7.20;99.90
23010;DHT22;11671;49.990;8.028;2022-11-14T07:58:03;7.40;99.90
23010;DHT22;11671;49.990;8.028;2022-11-14T08:00:29;7.70;99.90
23010;DHT22;11671;49.990;8.028;2022-11-14T08:02:55;7.80;99.90
23010;DHT22;11671;49.990;8.028;2022-11-14T08:05:20;7.80;99.90
23010;DHT22;11671;49.990;8.028;2022-11-14T08:07:49;7.90;99.90
23010;DHT22;11671;49.990;8.028;2022-11-14T08:10:16;8.00;99.90
23010;DHT22;11671;49.990;8.028;2022-11-14T08:12:42;8.10;99.90
23010;DHT22;11671;49.990;8.028;2022-11-14T08:15:13;8.00;99.90
23010;DHT22;11671;49.990;8.028;2022-11-14T08:17:39;8.00;99.90
23010;DHT22;11671;49.990;8.028;2022-11-14T08:20:05;8.00;99.90
23010;DHT22;11671;49.990;8.028;2022-11-14T08:22:31;8.10;99.90
23010;DHT22;11671;49.990;8.028;2022-11-14T08:24:56;8.10;99.90
23010;DHT22;11671;49.990;8.028;2022-11-14T08:27:23;8.20;99.90
23010;DHT22;11671;49.990;8.028;2022-11-14T08:29:48;8.10;99.90
23010;DHT22;11671;49.990;8.028;2022-11-14T08:32:16;8.00;99.90
23010;DHT22;11671;49.990;8.028;2022-11-14T08:34:41;8.00;99.90
23010;DHT22;11671;49.990;8.028;2022-11-14T08:37:07;8.00;99.90
23010;DHT22;11671;49.990;8.028;2022-11-14T08:39:32;8.00;99.90
23010;DHT22;11671;49.990;8.028;2022-11-14T08:41:58;8.00;99.90
23010;DHT22;11671;49.990;8.028;2022-11-14T08:44:23;8.00;99.90
23010;DHT22;11671;49.990;8.028;2022-11-14T08:46:49;8.00;99.90
23010;DHT22;11671;49.990;8.028;2022-11-14T08:49:15;7.90;99.90
23010;DHT22;11671;49.990;8.028;2022-11-14T08:51:40;7.80;99.90
23010;DHT22;11671;49.990;8.028;2022-11-14T08:54:06;7.80;99.90
23010;DHT22;11671;49.990;8.028;2022-11-14T08:56:31;7.90;99.90
23010;DHT22;11671;49.990;8.028;2022-11-14T08:58:57;7.90;99.90
23010;DHT22;11671;49.990;8.028;2022-11-14T09:01:22;7.90;99.90
23010;DHT22;11671;49.990;8.028;2022-11-14T09:03:48;8.00;99.90
23010;DHT22;11671;49.990;8.028;2022-11-14T09:06:13;8.00;99.90
23010;DHT22;11671;49.990;8.028;2022-11-14T09:08:39;8.00;99.90
23010;DHT22;11671;49.990;8.028;2022-11-14T09:11:05;8.00;99.90
23010;DHT22;11671;49.990;8.028;2022-11-14T09:13:34;8.10;99.90
23010;DHT22;11671;49.990;8.028;2022-11-14T09:16:00;8.10;99.90
23010;DHT22;11671;49.990;8.028;2022-11-14T09:18:26;8.10;99.90
23010;DHT22;11671;49.990;8.028;2022-11-14T09:20:51;8.20;99.90
23010;DHT22;11671;49.990;8.028;2022-11-14T09:23:17;8.20;99.90
23010;DHT22;11671;49.990;8.028;2022-11-14T09:25:43;8.20;99.90
23010;DHT22;11671;49.990;8.028;2022-11-14T09:28:08;8.20;99.90
23010;DHT22;11671;49.990;8.028;2022-11-14T09:30:34;8.20;99.90
23010;DHT22;11671;49.990;8.028;2022-11-14T09:33:03;8.30;99.90
23010;DHT22;11671;49.990;8.028;2022-11-14T09:35:30;8.20;99.90
23010;DHT22;11671;49.990;8.028;2022-11-14T09:38:03;8.30;99.90
23010;DHT22;11671;49.990;8.028;2022-11-14T09:45:56;8.40;99.90
23010;DHT22;11671;49.990;8.028;2022-11-14T09:48:22;8.50;99.90
23010;DHT22;11671;49.990;8.028;2022-11-14T09:51:24;8.50;99.90
23010;DHT22;11671;49.990;8.028;2022-11-14T09:54:04;8.50;99.90
23010;DHT22;11671;49.990;8.028;2022-11-14T09:56:31;8.50;99.90
23010;DHT22;11671;49.990;8.028;2022-11-14T09:58:56;8.40;99.90
23010;DHT22;11671;49.990;8.028;2022-11-14T10:01:35;8.40;99.90
23010;DHT22;11671;49.990;8.028;2022-11-14T10:06:58;8.50;99.90
23010;DHT22;11671;49.990;8.028;2022-11-14T10:20:23;8.80;99.90
23010;DHT22;11671;49.990;8.028;2022-11-14T10:23:03;8.90;99.90
23010;DHT22;11671;49.990;8.028;2022-11-14T10:25:49;9.00;99.90
23010;DHT22;11671;49.990;8.028;2022-11-14T10:31:56;9.20;99.90
23010;DHT22;11671;49.990;8.028;2022-11-14T10:34:38;9.20;99.90
23010;DHT22;11671;49.990;8.028;2022-11-14T10:37:25;9.30;99.90
23010;DHT22;11671;49.990;8.028;2022-11-14T10:39:53;9.30;99.90
23010;DHT22;11671;49.990;8.028;2022-11-14T10:42:38;9.20;99.90
23010;DHT22;11671;49.990;8.028;2022-11-14T10:45:16;9.30;99.90
23010;DHT22;11671;49.990;8.028;2022-11-14T10:47:59;9.30;99.90
23010;DHT22;11671;49.990;8.028;2022-11-14T10:55:57;9.60;99.90
23010;DHT22;11671;49.990;8.028;2022-11-14T10:58:24;9.60;99.90
23010;DHT22;11671;49.990;8.028;2022-11-14T11:00:49;9.70;99.90
23010;DHT22;11671;49.990;8.028;2022-11-14T11:03:15;9.70;99.90
23010;DHT22;11671;49.990;8.028;2022-11-14T11:05:59;9.80;99.90
23010;DHT22;11671;49.990;8.028;2022-11-14T11:08:24;9.80;99.90
23010;DHT22;11671;49.990;8.028;2022-11-14T11:11:13;9.90;99.90
23010;DHT22;11671;49.990;8.028;2022-11-14T11:13:55;9.90;99.90
23010;DHT22;11671;49.990;8.028;2022-11-14T11:16:23;10.00;99.90
23010;DHT22;11671;49.990;8.028;2022-11-14T11:18:49;10.20;99.90
23010;DHT22;11671;49.990;8.028;2022-11-14T11:21:16;10.40;99.90
23010;DHT22;11671;49.990;8.028;2022-11-14T11:23:53;10.40;99.90
23010;DHT22;11671;49.990;8.028;2022-11-14T11:26:25;10.40;99.90
23010;DHT22;11671;49.990;8.028;2022-11-14T11:31:27;10.50;99.90
23010;DHT22;11671;49.990;8.028;2022-11-14T11:34:09;10.60;99.90
23010;DHT22;11671;49.990;8.028;2022-11-14T11:36:36;10.50;99.90
23010;DHT22;11671;49.990;8.028;2022-11-14T11:39:04;10.60;99.90
23010;DHT22;11671;49.990;8.028;2022-11-14T11:41:30;10.70;99.90
23010;DHT22;11671;49.990;8.028;2022-11-14T11:44:00;10.90;99.90
23010;DHT22;11671;49.990;8.028;2022-11-14T11:46:45;10.80;99.90
23010;DHT22;11671;49.990;8.028;2022-11-14T11:49:27;10.60;99.90
23010;DHT22;11671;49.990;8.028;2022-11-14T11:52:02;10.50;99.90
23010;DHT22;11671;49.990;8.028;2022-11-14T11:54:35;10.50;99.90
23010;DHT22;11671;49.990;8.028;2022-11-14T11:57:12;10.50;99.90
23010;DHT22;11671;49.990;8.028;2022-11-14T11:59:48;10.40;99.90
23010;DHT22;11671;49.990;8.028;2022-11-14T12:02:25;10.40;99.90
23010;DHT22;11671;49.990;8.028;2022-11-14T12:04:53;10.40;99.90
23010;DHT22;11671;49.990;8.028;2022-11-14T12:10:21;10.40;99.90
23010;DHT22;11671;49.990;8.028;2022-11-14T12:19:07;10.30;99.90
23010;DHT22;11671;49.990;8.028;2022-11-14T12:24:33;10.40;99.90
23010;DHT22;11671;49.990;8.028;2022-11-14T12:30:11;10.40;99.90
23010;DHT22;11671;49.990;8.028;2022-11-14T12:35:30;10.50;99.90
23010;DHT22;11671;49.990;8.028;2022-11-14T12:37:56;10.50;99.90
23010;DHT22;11671;49.990;8.028;2022-11-14T12:40:34;10.50;99.90
23010;DHT22;11671;49.990;8.028;2022-11-14T12:43:01;10.50;99.90
23010;DHT22;11671;49.990;8.028;2022-11-14T12:50:41;10.40;99.90
23010;DHT22;11671;49.990;8.028;2022-11-14T12:56:13;10.40;99.90
23010;DHT22;11671;49.990;8.028;2022-11-14T13:04:06;10.50;99.90
23010;DHT22;11671;49.990;8.028;2022-11-14T13:11:48;10.40;99.90
23010;DHT22;11671;49.990;8.028;2022-11-14T13:14:51;10.40;99.90
23010;DHT22;11671;49.990;8.028;2022-11-14T13:17:36;10.40;99.90
23010;DHT22;11671;49.990;8.028;2022-11-14T13:20:37;10.40;99.90
23010;DHT22;11671;49.990;8.028;2022-11-14T13:33:46;10.60;99.90
23010;DHT22;11671;49.990;8.028;2022-11-14T13:41:59;10.70;99.90
23010;DHT22;11671;49.990;8.028;2022-11-14T13:50:25;10.70;99.90
23010;DHT22;11671;49.990;8.028;2022-11-14T13:52:54;10.80;99.90
23010;DHT22;11671;49.990;8.028;2022-11-14T13:55:45;10.80;99.90
23010;DHT22;11671;49.990;8.028;2022-11-14T14:10:00;11.20;99.90
23010;DHT22;11671;49.990;8.028;2022-11-14T14:12:34;11.20;99.90
23010;DHT22;11671;49.990;8.028;2022-11-14T14:20:47;11.20;99.90
23010;DHT22;11671;49.990;8.028;2022-11-14T14:26:38;11.30;99.90
23010;DHT22;11671;49.990;8.028;2022-11-14T14:32:17;11.10;99.90
23010;DHT22;11671;49.990;8.028;2022-11-14T14:34:43;11.00;99.90
23010;DHT22;11671;49.990;8.028;2022-11-14T14:37:18;11.00;99.90
23010;DHT22;11671;49.990;8.028;2022-11-14T14:40:00;11.00;99.90
23010;DHT22;11671;49.990;8.028;2022-11-14T14:42:38;11.00;99.90
23010;DHT22;11671;49.990;8.028;2022-11-14T14:45:13;11.00;99.90
23010;DHT22;11671;49.990;8.028;2022-11-14T14:47:40;11.00;99.90
23010;DHT22;11671;49.990;8.028;2022-11-14T14:50:16;11.00;99.90
23010;DHT22;11671;49.990;8.028;2022-11-14T14:52:43;11.00;99.90
23010;DHT22;11671;49.990;8.028;2022-11-14T14:55:20;11.10;99.90
23010;DHT22;11671;49.990;8.028;2022-11-14T14:57:45;11.10;99.90
23010;DHT22;11671;49.990;8.028;2022-11-14T15:00:21;11.10;99.90
23010;DHT22;11671;49.990;8.028;2022-11-14T15:02:48;11.10;99.90
23010;DHT22;11671;49.990;8.028;2022-11-14T15:05:25;11.10;99.90
23010;DHT22;11671;49.990;8.028;2022-11-14T15:07:58;11.20;99.90
23010;DHT22;11671;49.990;8.028;2022-11-14T15:10:27;11.20;99.90
23010;DHT22;11671;49.990;8.028;2022-11-14T15:12:57;11.20;99.90
23010;DHT22;11671;49.990;8.028;2022-11-14T15:15:24;11.20;99.90
23010;DHT22;11671;49.990;8.028;2022-11-14T15:17:52;11.20;99.90
23010;DHT22;11671;49.990;8.028;2022-11-14T15:20:26;11.30;99.90
23010;DHT22;11671;49.990;8.028;2022-11-14T15:25:39;11.20;99.90
23010;DHT22;11671;49.990;8.028;2022-11-14T15:28:11;11.10;99.90
23010;DHT22;11671;49.990;8.028;2022-11-14T15:30:38;11.10;99.90
23010;DHT22;11671;49.990;8.028;2022-11-14T15:33:04;11.10;99.90
23010;DHT22;11671;49.990;8.028;2022-11-14T15:35:35;11.10;99.90
23010;DHT22;11671;49.990;8.028;2022-11-14T15:40:39;11.10;99.90
23010;DHT22;11671;49.990;8.028;2022-11-14T15:48:52;11.10;99.90
23010;DHT22;11671;49.990;8.028;2022-11-14T15:51:17;11.10;99.90
23010;DHT22;11671;49.990;8.028;2022-11-14T15:53:47;11.10;99.90
23010;DHT22;11671;49.990;8.028;2022-11-14T15:56:13;11.00;99.90
23010;DHT22;11671;49.990;8.028;2022-11-14T15:58:39;11.00;99.90
23010;DHT22;11671;49.990;8.028;2022-11-14T16:01:05;10.90;99.90
23010;DHT22;11671;49.990;8.028;2022-11-14T16:03:37;10.90;99.90
23010;DHT22;11671;49.990;8.028;2022-11-14T16:06:03;10.90;99.90
23010;DHT22;11671;49.990;8.028;2022-11-14T16:08:28;10.90;99.90
23010;DHT22;11671;49.990;8.028;2022-11-14T16:10:54;10.80;99.90
23010;DHT22;11671;49.990;8.028;2022-11-14T16:13:19;10.80;99.90
23010;DHT22;11671;49.990;8.028;2022-11-14T16:15:45;10.80;99.90
23010;DHT22;11671;49.990;8.028;2022-11-14T16:18:10;10.80;99.90
23010;DHT22;11671;49.990;8.028;2022-11-14T16:20:36;10.80;99.90
23010;DHT22;11671;49.990;8.028;2022-11-14T16:23:04;10.80;99.90
23010;DHT22;11671;49.990;8.028;2022-11-14T16:25:30;10.80;99.90
23010;DHT22;11671;49.990;8.028;2022-11-14T16:27:55;10.70;99.90
23010;DHT22;11671;49.990;8.028;2022-11-14T16:30:23;10.70;99.90
23010;DHT22;11671;49.990;8.028;2022-11-14T16:32:50;10.60;99.90
23010;DHT22;11671;49.990;8.028;2022-11-14T16:35:18;10.60;99.90
23010;DHT22;11671;49.990;8.028;2022-11-14T16:37:44;10.60;99.90
23010;DHT22;11671;49.990;8.028;2022-11-14T16:40:22;10.50;99.90
23010;DHT22;11671;49.990;8.028;2022-11-14T16:42:53;10.50;99.90
23010;DHT22;11671;49.990;8.028;2022-11-14T16:45:19;10.60;99.90
23010;DHT22;11671;49.990;8.028;2022-11-14T16:47:45;10.60;99.90
23010;DHT22;11671;49.990;8.028;2022-11-14T16:50:11;10.70;99.90
23010;DHT22;11671;49.990;8.028;2022-11-14T16:52:37;10.70;99.90
23010;DHT22;11671;49.990;8.028;2022-11-14T16:55:07;10.70;99.90
23010;DHT22;11671;49.990;8.028;2022-11-14T16:57:33;10.70;99.90
23010;DHT22;11671;49.990;8.028;2022-11-14T16:59:59;10.80;99.90
23010;DHT22;11671;49.990;8.028;2022-11-14T17:02:24;10.80;99.90
23010;DHT22;11671;49.990;8.028;2022-11-14T17:04:50;10.80;99.90
23010;DHT22;11671;49.990;8.028;2022-11-14T17:07:16;10.90;99.90
23010;DHT22;11671;49.990;8.028;2022-11-14T17:09:42;11.00;99.90
23010;DHT22;11671;49.990;8.028;2022-11-14T17:12:07;11.10;99.90
23010;DHT22;11671;49.990;8.028;2022-11-14T17:14:33;11.10;99.90
23010;DHT22;11671;49.990;8.028;2022-11-14T17:16:59;11.10;99.90
23010;DHT22;11671;49.990;8.028;2022-11-14T17:19:24;11.10;99.90
23010;DHT22;11671;49.990;8.028;2022-11-14T17:21:50;11.10;99.90
23010;DHT22;11671;49.990;8.028;2022-11-14T17:24:16;11.10;99.90
23010;DHT22;11671;49.990;8.028;2022-11-14T17:26:41;11.10;99.90
23010;DHT22;11671;49.990;8.028;2022-11-14T17:29:07;11.10;99.90
23010;DHT22;11671;49.990;8.028;2022-11-14T17:31:33;11.20;99.90
23010;DHT22;11671;49.990;8.028;2022-11-14T17:33:59;11.20;99.90
23010;DHT22;11671;49.990;8.028;2022-11-14T17:36:27;11.20;99.90
23010;DHT22;11671;49.990;8.028;2022-11-14T17:38:54;11.20;99.90
23010;DHT22;11671;49.990;8.028;2022-11-14T17:41:19;11.20;99.90
23010;DHT22;11671;49.990;8.028;2022-11-14T17:43:45;11.20;99.90
23010;DHT22;11671;49.990;8.028;2022-11-14T17:46:11;11.20;99.90
23010;DHT22;11671;49.990;8.028;2022-11-14T17:48:38;11.20;99.90
23010;DHT22;11671;49.990;8.028;2022-11-14T17:51:06;11.20;99.90
23010;DHT22;11671;49.990;8.028;2022-11-14T17:53:35;11.10;99.90